createdAt,value
2019-02-06T00:00:02.935Z,82.28
2019-02-06T00:01:02.860Z,80.06
2019-02-06T00:02:03.172Z,70.66
2019-02-06T00:03:03.500Z,74.59
2019-02-06T00:04:03.508Z,84.18
2019-02-06T00:05:13.805Z,68.68
2019-02-06T00:06:02.951Z,74.42
2019-02-06T00:07:03.053Z,77.01
2019-02-06T00:08:03.058Z,68.22
2019-02-06T00:09:03.000Z,76.67
2019-02-06T00:10:02.964Z,82.4
2019-02-06T00:11:03.352Z,83.36
2019-02-06T00:12:03.302Z,83.36
2019-02-06T00:13:02.794Z,90.99
2019-02-06T00:14:03.014Z,90.99
2019-02-06T00:15:02.748Z,83.78
2019-02-06T00:16:03.645Z,86.46
2019-02-06T00:17:03.375Z,87.34
2019-02-06T00:18:03.728Z,77.28
2019-02-06T00:19:02.978Z,77.28
2019-02-06T00:20:03.085Z,83.63
2019-02-06T00:21:02.795Z,65.93
2019-02-06T00:22:02.794Z,77.82
2019-02-06T00:23:03.128Z,81.94
2019-02-06T00:24:03.353Z,79.8
2019-02-06T00:25:03.464Z,78.93
2019-02-06T00:26:02.676Z,66.46
2019-02-06T00:27:03.130Z,79.28
2019-02-06T00:28:03.424Z,78.25
2019-02-06T00:29:03.456Z,73.44
2019-02-06T00:30:03.135Z,68.39
2019-02-06T00:31:03.222Z,79.71
2019-02-06T00:32:02.969Z,74.56
2019-02-06T00:33:02.698Z,88.75
2019-02-06T00:34:03.213Z,84.89
2019-02-06T00:35:02.764Z,110.38
2019-02-06T00:36:03.345Z,82.09
2019-02-06T00:37:02.613Z,92.96
2019-02-06T00:38:05.208Z,87.9
2019-02-06T00:39:02.868Z,91.49
2019-02-06T00:40:03.610Z,91.9
2019-02-06T00:41:02.488Z,83.43
2019-02-06T00:42:03.344Z,75.11
2019-02-06T00:43:03.013Z,91.72
2019-02-06T00:44:03.371Z,73.39
2019-02-06T00:45:03.821Z,76.63
2019-02-06T00:46:02.922Z,81.49
2019-02-06T00:47:03.439Z,83.61
2019-02-06T00:48:03.557Z,82.97
2019-02-06T00:49:03.419Z,77.07
2019-02-06T00:50:03.308Z,88.38
2019-02-06T00:51:03.620Z,90.84
2019-02-06T00:52:03.218Z,83.67
2019-02-06T00:53:03.573Z,100.69
2019-02-06T00:54:03.856Z,95.78
2019-02-06T00:55:03.363Z,109.63
2019-02-06T00:56:03.653Z,109.99
2019-02-06T00:57:02.808Z,103.89
2019-02-06T00:58:02.898Z,100.88
2019-02-06T00:59:02.827Z,100.88
2019-02-06T01:00:03.678Z,106.14
2019-02-06T01:01:03.226Z,94.26
2019-02-06T01:02:03.312Z,94.26
2019-02-06T01:03:03.161Z,100.79
2019-02-06T01:04:02.803Z,100.79
2019-02-06T01:05:03.170Z,93.67
2019-02-06T01:06:02.905Z,99.51
2019-02-06T01:07:03.838Z,92.72
2019-02-06T01:08:03.282Z,127.91
2019-02-06T01:09:03.438Z,96.79
2019-02-06T01:10:02.817Z,106.02
2019-02-06T01:11:03.182Z,94.05
2019-02-06T01:12:03.154Z,102.27
2019-02-06T01:13:03.122Z,102.34
2019-02-06T01:14:03.655Z,102.85
2019-02-06T01:15:03.252Z,97.61
2019-02-06T01:16:03.389Z,105.35
2019-02-06T01:17:03.100Z,123.76
2019-02-06T01:18:02.887Z,95.24
2019-02-06T01:19:02.889Z,96.99
2019-02-06T01:20:03.562Z,110.88
2019-02-06T01:21:03.643Z,109.59
2019-02-06T01:22:02.564Z,100.78
2019-02-06T01:23:02.932Z,95.91
2019-02-06T01:24:03.709Z,101.39
2019-02-06T01:25:03.093Z,96.41
2019-02-06T01:26:03.041Z,109.34
2019-02-06T01:27:02.896Z,124.86
2019-02-06T01:28:03.161Z,102.98
2019-02-06T01:29:03.514Z,95.92
2019-02-06T01:30:03.465Z,88.81
2019-02-06T01:31:02.739Z,122.22
2019-02-06T01:32:02.934Z,111.05
2019-02-06T01:33:03.646Z,119.85
2019-02-06T01:34:03.506Z,100.34
2019-02-06T01:35:03.222Z,135.66
2019-02-06T01:36:02.576Z,103.61
2019-02-06T01:37:03.012Z,116.69
2019-02-06T01:38:02.960Z,118.3
2019-02-06T01:39:03.696Z,114.01
2019-02-06T01:40:03.902Z,113.36
2019-02-06T01:41:02.793Z,118.09
2019-02-06T01:42:03.236Z,121.82
2019-02-06T01:43:03.118Z,123.7
2019-02-06T01:44:02.984Z,120.77
2019-02-06T01:45:03.073Z,111.96
2019-02-06T01:46:03.292Z,110.76
2019-02-06T01:47:03.038Z,111.79
2019-02-06T01:48:03.017Z,114.22
2019-02-06T01:49:03.617Z,114.22
2019-02-06T01:50:02.835Z,114.93
2019-02-06T01:51:02.707Z,114.93
2019-02-06T01:52:03.019Z,104.73
2019-02-06T01:53:03.345Z,115.99
2019-02-06T01:54:03.521Z,116.9
2019-02-06T01:55:03.775Z,125.21
2019-02-06T01:56:03.516Z,118.48
2019-02-06T01:57:03.204Z,105.08
2019-02-06T01:58:03.252Z,103.19
2019-02-06T01:59:03.109Z,103.19
2019-02-06T02:00:02.989Z,110.71
2019-02-06T02:01:02.683Z,94.75
2019-02-06T02:02:04.262Z,112.48
2019-02-06T02:03:02.572Z,104.24
2019-02-06T02:04:03.317Z,108.91
2019-02-06T02:05:02.665Z,108.52
2019-02-06T02:06:02.917Z,113.98
2019-02-06T02:07:02.754Z,97.86
2019-02-06T02:08:02.858Z,81.25
2019-02-06T02:09:02.750Z,125.35
2019-02-06T02:10:03.784Z,97.72
2019-02-06T02:11:02.943Z,123.36
2019-02-06T02:12:03.694Z,159.41
2019-02-06T02:13:03.293Z,95.06
2019-02-06T02:14:02.701Z,106.5
2019-02-06T02:15:03.141Z,129.38
2019-02-06T02:16:02.824Z,158.55
2019-02-06T02:17:03.341Z,117.41
2019-02-06T02:18:02.853Z,113.55
2019-02-06T02:19:02.956Z,99.21
2019-02-06T02:20:03.460Z,105.75
2019-02-06T02:21:02.777Z,89.51
2019-02-06T02:22:03.213Z,101.71
2019-02-06T02:23:03.553Z,100.89
2019-02-06T02:24:02.855Z,115.63
2019-02-06T02:25:03.145Z,135.86
2019-02-06T02:26:03.423Z,122.8
2019-02-06T02:27:03.002Z,107.96
2019-02-06T02:28:03.089Z,112.76
2019-02-06T02:29:03.113Z,103.88
2019-02-06T02:30:03.256Z,103.46
2019-02-06T02:31:02.799Z,94.25
2019-02-06T02:32:02.825Z,102.75
2019-02-06T02:33:03.645Z,99.57
2019-02-06T02:34:03.419Z,92.98
2019-02-06T02:35:03.489Z,102.15
2019-02-06T02:36:14.793Z,98.97
2019-02-06T02:37:02.872Z,84.16
2019-02-06T02:38:03.503Z,96.39
2019-02-06T02:39:03.616Z,97.16
2019-02-06T02:40:02.807Z,93.15
2019-02-06T02:41:03.161Z,93.15
2019-02-06T02:42:02.732Z,86.95
2019-02-06T02:43:03.204Z,95.1
2019-02-06T02:44:02.990Z,95.1
2019-02-06T02:45:03.208Z,93.98
2019-02-06T02:46:02.876Z,95.09
2019-02-06T02:47:02.831Z,97.75
2019-02-06T02:48:03.643Z,99.19
2019-02-06T02:49:02.644Z,92.38
2019-02-06T02:50:03.558Z,82.48
2019-02-06T02:51:02.666Z,83.99
2019-02-06T02:52:03.324Z,83.73
2019-02-06T02:53:03.348Z,106
2019-02-06T02:54:03.063Z,86.18
2019-02-06T02:55:02.952Z,88.75
2019-02-06T02:56:04.097Z,92.63
2019-02-06T02:57:03.058Z,90.41
2019-02-06T02:58:03.279Z,88.92
2019-02-06T02:59:02.765Z,134.53
2019-02-06T03:00:03.674Z,114.05
2019-02-06T03:01:03.010Z,97.2
2019-02-06T03:02:03.862Z,101.15
2019-02-06T03:03:02.353Z,100.66
2019-02-06T03:04:03.359Z,119.12
2019-02-06T03:05:03.347Z,121.92
2019-02-06T03:06:03.210Z,101.05
2019-02-06T03:07:03.586Z,141.39
2019-02-06T03:08:02.805Z,151.01
2019-02-06T03:09:03.199Z,116.78
2019-02-06T03:10:02.813Z,115.6
2019-02-06T03:11:03.318Z,118.18
2019-02-06T03:12:02.969Z,122.29
2019-02-06T03:13:03.329Z,109.37
2019-02-06T03:14:03.289Z,180.38
2019-02-06T03:15:03.450Z,114
2019-02-06T03:16:02.816Z,105.39
2019-02-06T03:17:03.531Z,117.42
2019-02-06T03:18:03.610Z,117.18
2019-02-06T03:19:03.304Z,116.34
2019-02-06T03:20:03.130Z,112.77
2019-02-06T03:21:03.468Z,116.57
2019-02-06T03:22:02.795Z,122.22
2019-02-06T03:23:02.752Z,121.01
2019-02-06T03:24:03.520Z,140.99
2019-02-06T03:25:03.241Z,129.15
2019-02-06T03:26:02.579Z,155.51
2019-02-06T03:27:03.450Z,109.98
2019-02-06T03:28:02.824Z,115.48
2019-02-06T03:29:02.977Z,119.84
2019-02-06T03:30:03.329Z,120.44
2019-02-06T03:31:02.874Z,132.28
2019-02-06T03:32:03.658Z,125.88
2019-02-06T03:33:03.142Z,125.88
2019-02-06T03:34:04.890Z,113.01
2019-02-06T03:35:02.888Z,127.12
2019-02-06T03:36:03.673Z,127.12
2019-02-06T03:37:03.430Z,108.29
2019-02-06T03:38:03.296Z,108.52
2019-02-06T03:39:03.371Z,159.66
2019-02-06T03:40:02.920Z,111.43
2019-02-06T03:41:03.435Z,120.51
2019-02-06T03:42:03.513Z,120.74
2019-02-06T03:43:02.904Z,119.02
2019-02-06T03:44:03.613Z,128.65
2019-02-06T03:45:02.963Z,128.01
2019-02-06T03:46:02.901Z,119.86
2019-02-06T03:47:03.819Z,110.92
2019-02-06T03:48:03.056Z,128.41
2019-02-06T03:49:03.147Z,127.15
2019-02-06T03:50:02.889Z,127.54
2019-02-06T03:51:03.299Z,146.62
2019-02-06T03:52:03.424Z,120.65
2019-02-06T03:53:02.127Z,125.84
2019-02-06T03:54:03.602Z,184.69
2019-02-06T03:55:03.689Z,127.04
2019-02-06T03:56:03.520Z,117.82
2019-02-06T03:57:02.832Z,116.05
2019-02-06T03:58:03.601Z,116.59
2019-02-06T03:59:03.583Z,112.84
2019-02-06T04:00:02.703Z,135.86
2019-02-06T04:01:02.826Z,137.92
2019-02-06T04:02:02.454Z,106.41
2019-02-06T04:03:03.552Z,123.22
2019-02-06T04:04:03.029Z,128.85
2019-02-06T04:05:03.013Z,135.02
2019-02-06T04:06:03.345Z,152.2
2019-02-06T04:07:03.542Z,121.9
2019-02-06T04:08:02.982Z,123.56
2019-02-06T04:09:03.128Z,134.54
2019-02-06T04:10:02.926Z,120.53
2019-02-06T04:11:03.366Z,117.24
2019-02-06T04:12:02.865Z,132.15
2019-02-06T04:13:02.714Z,127.35
2019-02-06T04:14:03.042Z,112.59
2019-02-06T04:15:03.488Z,121.81
2019-02-06T04:16:02.625Z,124.28
2019-02-06T04:17:03.266Z,114.15
2019-02-06T04:18:02.736Z,114.15
2019-02-06T04:19:03.240Z,131.56
2019-02-06T04:20:03.029Z,130.33
2019-02-06T04:21:02.630Z,130.33
2019-02-06T04:22:02.713Z,113.06
2019-02-06T04:23:02.723Z,135.15
2019-02-06T04:24:03.203Z,135.15
2019-02-06T04:25:02.798Z,117.62
2019-02-06T04:26:03.398Z,128.9
2019-02-06T04:27:02.587Z,111.12
2019-02-06T04:28:03.493Z,130.34
2019-02-06T04:29:03.690Z,128.53
2019-02-06T04:30:03.063Z,117.92
2019-02-06T04:31:03.589Z,126.55
2019-02-06T04:32:02.889Z,104.39
2019-02-06T04:33:03.274Z,119.93
2019-02-06T04:34:03.276Z,96.33
2019-02-06T04:35:02.803Z,111.24
2019-02-06T04:36:03.340Z,90.51
2019-02-06T04:37:06.416Z,89.77
2019-02-06T04:38:02.865Z,88.42
2019-02-06T04:39:02.671Z,90.45
2019-02-06T04:40:02.861Z,83.32
2019-02-06T04:41:03.074Z,100.09
2019-02-06T04:42:02.987Z,80.96
2019-02-06T04:43:03.389Z,88.12
2019-02-06T04:44:02.913Z,100.76
2019-02-06T04:45:03.012Z,73.66
2019-02-06T04:46:02.947Z,99.44
2019-02-06T04:47:02.873Z,89.27
2019-02-06T04:48:03.264Z,94.71
2019-02-06T04:49:02.599Z,101.36
2019-02-06T04:50:03.260Z,94.9
2019-02-06T04:51:03.242Z,97.64
2019-02-06T04:52:03.665Z,99.78
2019-02-06T04:53:03.022Z,125.26
2019-02-06T04:54:02.736Z,84.38
2019-02-06T04:55:03.275Z,83.21
2019-02-06T04:56:02.921Z,94.39
2019-02-06T04:57:03.277Z,82.91
2019-02-06T04:58:03.379Z,110.52
2019-02-06T04:59:03.569Z,88.59
2019-02-06T05:00:03.467Z,112.77
2019-02-06T05:01:02.717Z,101.18
2019-02-06T05:02:02.818Z,94.49
2019-02-06T05:03:03.281Z,86.27
2019-02-06T05:04:02.989Z,85.93
2019-02-06T05:05:02.951Z,96.57
2019-02-06T05:06:03.467Z,75.93
2019-02-06T05:07:02.865Z,82.69
2019-02-06T05:08:03.343Z,81.59
2019-02-06T05:09:03.712Z,79.87
2019-02-06T05:10:03.341Z,79.74
2019-02-06T05:11:03.454Z,79.74
2019-02-06T05:12:03.504Z,95.41
2019-02-06T05:13:02.629Z,95.41
2019-02-06T05:14:02.990Z,95.18
2019-02-06T05:15:02.708Z,104.45
2019-02-06T05:16:02.712Z,78.15
2019-02-06T05:17:02.805Z,115.24
2019-02-06T05:18:03.353Z,100.08
2019-02-06T05:19:02.715Z,120.71
2019-02-06T05:20:03.300Z,82.61
2019-02-06T05:21:03.612Z,87.84
2019-02-06T05:22:03.617Z,93.86
2019-02-06T05:23:03.146Z,89.7
2019-02-06T05:24:03.496Z,98.68
2019-02-06T05:25:03.670Z,89.81
2019-02-06T05:26:03.451Z,89.64
2019-02-06T05:27:03.583Z,90.4
2019-02-06T05:28:03.136Z,95.71
2019-02-06T05:29:02.885Z,99.81
2019-02-06T05:30:03.364Z,99.81
2019-02-06T05:31:03.490Z,89.26
2019-02-06T05:32:02.439Z,87.49
2019-02-06T05:33:03.526Z,91.21
2019-02-06T05:34:03.953Z,86.56
2019-02-06T05:35:03.554Z,88.34
2019-02-06T05:36:03.010Z,86.31
2019-02-06T05:37:02.995Z,76.79
2019-02-06T05:38:02.768Z,87.84
2019-02-06T05:39:03.415Z,99.12
2019-02-06T05:40:03.173Z,95.05
2019-02-06T05:41:03.183Z,91.86
2019-02-06T05:42:03.614Z,87.41
2019-02-06T05:43:03.685Z,89.32
2019-02-06T05:44:03.662Z,93.49
2019-02-06T05:45:02.734Z,94.5
2019-02-06T05:46:02.919Z,109.25
2019-02-06T05:47:03.604Z,90.67
2019-02-06T05:48:03.664Z,90.67
2019-02-06T05:49:03.355Z,99.35
2019-02-06T05:50:02.952Z,82.19
2019-02-06T05:51:02.989Z,87.95
2019-02-06T05:52:02.933Z,112.48
2019-02-06T05:53:02.653Z,102.18
2019-02-06T05:54:02.841Z,99.25
2019-02-06T05:55:04.624Z,94.46
2019-02-06T05:56:03.324Z,102.48
2019-02-06T05:57:02.612Z,93.09
2019-02-06T05:58:03.147Z,93.09
2019-02-06T05:59:03.670Z,99.3
2019-02-06T06:00:03.499Z,99.3
2019-02-06T06:01:03.154Z,106.27
2019-02-06T06:02:03.166Z,101.56
2019-02-06T06:03:03.106Z,103.38
2019-02-06T06:04:03.051Z,135.88
2019-02-06T06:05:03.049Z,115.15
2019-02-06T06:06:03.273Z,113.45
2019-02-06T06:07:03.418Z,110.97
2019-02-06T06:08:02.796Z,104.76
2019-02-06T06:09:02.913Z,134.99
2019-02-06T06:10:03.515Z,86.59
2019-02-06T06:11:03.084Z,96.82
2019-02-06T06:12:03.248Z,88.36
2019-02-06T06:13:03.581Z,102.09
2019-02-06T06:14:03.171Z,89.04
2019-02-06T06:15:03.416Z,104.47
2019-02-06T06:16:03.583Z,89.56
2019-02-06T06:17:03.447Z,100.28
2019-02-06T06:18:03.202Z,94.82
2019-02-06T06:19:03.528Z,85.85
2019-02-06T06:20:03.496Z,96.74
2019-02-06T06:21:03.527Z,97.28
2019-02-06T06:22:03.516Z,104.08
2019-02-06T06:23:03.380Z,81.88
2019-02-06T06:24:02.783Z,104.92
2019-02-06T06:25:03.211Z,101.88
2019-02-06T06:26:03.267Z,101.54
2019-02-06T06:27:03.790Z,113.54
2019-02-06T06:28:03.154Z,89.76
2019-02-06T06:29:02.914Z,90.76
2019-02-06T06:30:03.516Z,90.96
2019-02-06T06:31:03.154Z,84.45
2019-02-06T06:32:02.955Z,87.89
2019-02-06T06:33:03.058Z,84.88
2019-02-06T06:34:03.042Z,90.59
2019-02-06T06:35:03.204Z,91.15
2019-02-06T06:36:03.003Z,72.42
2019-02-06T06:37:03.618Z,84.29
2019-02-06T06:38:03.102Z,104.26
2019-02-06T06:39:03.385Z,88.16
2019-02-06T06:40:03.419Z,74.66
2019-02-06T06:41:03.267Z,93.53
2019-02-06T06:42:03.061Z,90.71
2019-02-06T06:43:03.724Z,72.51
2019-02-06T06:44:03.542Z,87.44
2019-02-06T06:45:02.822Z,90.88
2019-02-06T06:46:03.128Z,90.88
2019-02-06T06:47:03.033Z,107.91
2019-02-06T06:48:03.466Z,99.58
2019-02-06T06:49:03.103Z,102.96
2019-02-06T06:50:02.685Z,102.96
2019-02-06T06:51:03.646Z,102.88
2019-02-06T06:52:03.959Z,96.77
2019-02-06T06:53:02.805Z,107.19
2019-02-06T06:54:03.135Z,104.41
2019-02-06T06:55:03.181Z,101.85
2019-02-06T06:56:03.503Z,104.16
2019-02-06T06:57:03.095Z,94.3
2019-02-06T06:58:02.880Z,89.8
2019-02-06T06:59:03.324Z,107.45
2019-02-06T07:00:03.181Z,91.49
2019-02-06T07:01:03.075Z,100.22
2019-02-06T07:02:02.927Z,103.61
2019-02-06T07:03:03.253Z,90.84
2019-02-06T07:04:03.056Z,104.72
2019-02-06T07:05:05.550Z,107.12
2019-02-06T07:06:03.620Z,106.5
2019-02-06T07:07:02.672Z,98.4
2019-02-06T07:08:09.403Z,130.12
2019-02-06T07:09:03.664Z,102.58
2019-02-06T07:10:03.576Z,101.49
2019-02-06T07:11:02.902Z,98.45
2019-02-06T07:12:03.653Z,100.49
2019-02-06T07:13:03.574Z,95.06
2019-02-06T07:14:03.069Z,101.11
2019-02-06T07:15:02.621Z,90.94
2019-02-06T07:16:02.659Z,93.9
2019-02-06T07:17:02.951Z,87.84
2019-02-06T07:18:03.026Z,98.52
2019-02-06T07:19:03.366Z,102.52
2019-02-06T07:20:03.232Z,85.11
2019-02-06T07:21:02.842Z,101.55
2019-02-06T07:22:03.613Z,91.69
2019-02-06T07:23:03.590Z,93.92
2019-02-06T07:24:03.410Z,101.58
2019-02-06T07:25:03.151Z,93.48
2019-02-06T07:26:02.629Z,111.93
2019-02-06T07:27:03.403Z,101.35
2019-02-06T07:28:03.135Z,92.95
2019-02-06T07:29:02.770Z,95.41
2019-02-06T07:30:03.231Z,97.35
2019-02-06T07:31:02.832Z,109.68
2019-02-06T07:32:03.348Z,140.84
2019-02-06T07:33:03.364Z,96.99
2019-02-06T07:34:03.261Z,130.81
2019-02-06T07:35:03.441Z,104.48
2019-02-06T07:36:02.903Z,102.14
2019-02-06T07:37:03.263Z,92.89
2019-02-06T07:38:03.180Z,92.89
2019-02-06T07:39:02.414Z,126.46
2019-02-06T07:40:03.708Z,103.17
2019-02-06T07:41:03.012Z,105.26
2019-02-06T07:42:03.067Z,96.32
2019-02-06T07:43:02.924Z,98.57
2019-02-06T07:44:02.964Z,97.04
2019-02-06T07:45:02.915Z,87.59
2019-02-06T07:46:03.563Z,83.02
2019-02-06T07:47:03.016Z,85.65
2019-02-06T07:48:02.987Z,78.49
2019-02-06T07:49:02.855Z,84.77
2019-02-06T07:50:03.562Z,113.01
2019-02-06T07:51:02.787Z,96.41
2019-02-06T07:52:03.114Z,103.42
2019-02-06T07:53:02.612Z,103.9
2019-02-06T07:54:03.085Z,104.04
2019-02-06T07:55:02.945Z,102.58
2019-02-06T07:56:02.966Z,102.52
2019-02-06T07:57:03.517Z,98.42
2019-02-06T07:58:03.042Z,100.09
2019-02-06T07:59:02.574Z,118.11
2019-02-06T08:00:03.324Z,99.63
2019-02-06T08:01:03.202Z,99.23
2019-02-06T08:02:03.708Z,107.36
2019-02-06T08:03:02.643Z,104.83
2019-02-06T08:04:03.055Z,111.91
2019-02-06T08:05:02.914Z,125.15
2019-02-06T08:06:02.882Z,106.53
2019-02-06T08:07:03.407Z,117.91
2019-02-06T08:08:03.472Z,95.98
2019-02-06T08:09:03.081Z,107.4
2019-02-06T08:10:03.076Z,115.56
2019-02-06T08:11:03.243Z,109.52
2019-02-06T08:12:03.176Z,115.64
2019-02-06T08:13:03.163Z,113.01
2019-02-06T08:14:02.695Z,108.34
2019-02-06T08:15:03.168Z,119.76
2019-02-06T08:16:03.030Z,102.26
2019-02-06T08:17:02.734Z,108.61
2019-02-06T08:18:03.298Z,101.35
2019-02-06T08:19:03.332Z,104.59
2019-02-06T08:20:02.910Z,114.05
2019-02-06T08:21:02.961Z,101.83
2019-02-06T08:22:03.147Z,101.14
2019-02-06T08:23:03.260Z,94.28
2019-02-06T08:24:03.782Z,95.49
2019-02-06T08:25:03.523Z,99.34
2019-02-06T08:26:03.335Z,99.34
2019-02-06T08:27:03.336Z,98.02
2019-02-06T08:28:03.309Z,99.27
2019-02-06T08:29:03.100Z,99.27
2019-02-06T08:30:03.287Z,102.78
2019-02-06T08:31:03.630Z,99.26
2019-02-06T08:32:03.188Z,100.47
2019-02-06T08:33:03.157Z,130.76
2019-02-06T08:34:03.133Z,116.04
2019-02-06T08:35:02.808Z,98.71
2019-02-06T08:36:03.268Z,108.01
2019-02-06T08:37:03.054Z,101.63
2019-02-06T08:38:03.676Z,108.04
2019-02-06T08:39:02.579Z,103.84
2019-02-06T08:40:03.319Z,95.94
2019-02-06T08:41:03.246Z,94.49
2019-02-06T08:42:03.559Z,96.32
2019-02-06T08:43:02.686Z,89.93
2019-02-06T08:45:27.380Z,75.05
2019-02-06T08:45:27.401Z,75.05
2019-02-06T08:46:03.641Z,75.05
2019-02-06T08:47:03.536Z,90.16
2019-02-06T08:48:03.348Z,79.98
2019-02-06T08:49:03.280Z,81.22
2019-02-06T08:50:03.405Z,73.06
2019-02-06T08:51:03.455Z,80.39
2019-02-06T08:52:02.501Z,85.09
2019-02-06T08:53:03.183Z,85.77
2019-02-06T08:54:03.032Z,76.1
2019-02-06T08:55:02.843Z,77.25
2019-02-06T08:56:03.666Z,84.48
2019-02-06T08:57:03.467Z,89.02
2019-02-06T08:58:03.366Z,83.58
2019-02-06T08:59:02.725Z,76.41
2019-02-06T09:00:03.114Z,89.07
2019-02-06T09:01:03.125Z,82.15
2019-02-06T09:02:03.340Z,76.29
2019-02-06T09:03:02.972Z,85.19
2019-02-06T09:04:03.171Z,82.89
2019-02-06T09:05:03.456Z,85.5
2019-02-06T09:06:03.084Z,79.15
2019-02-06T09:07:03.490Z,76.01
2019-02-06T09:08:03.101Z,78.53
2019-02-06T09:09:03.277Z,75.63
2019-02-06T09:10:03.266Z,77.41
2019-02-06T09:11:03.250Z,77.06
2019-02-06T09:12:03.505Z,73.41
2019-02-06T09:13:03.344Z,68.92
2019-02-06T09:14:03.650Z,64.36
2019-02-06T09:15:03.158Z,71.95
2019-02-06T09:16:03.383Z,69.32
2019-02-06T09:17:02.997Z,69.62
2019-02-06T09:18:03.624Z,69.62
2019-02-06T09:19:03.053Z,67.69
2019-02-06T09:20:03.184Z,71.26
2019-02-06T09:21:03.210Z,63.68
2019-02-06T09:22:03.516Z,63.68
2019-02-06T09:23:02.705Z,64.99
2019-02-06T09:24:03.387Z,73.37
2019-02-06T09:25:02.873Z,67.01
2019-02-06T09:26:03.511Z,70.99
2019-02-06T09:27:03.704Z,68.43
2019-02-06T09:28:02.771Z,63.95
2019-02-06T09:29:02.000Z,67.34
2019-02-06T09:30:03.369Z,63.83
2019-02-06T09:31:03.269Z,61.66
2019-02-06T09:32:03.652Z,71.05
2019-02-06T09:33:03.586Z,71.05
2019-02-06T09:34:02.908Z,78.7
2019-02-06T09:35:03.041Z,58.68
2019-02-06T09:36:03.496Z,76.4
2019-02-06T09:37:05.107Z,70.81
2019-02-06T09:38:03.639Z,60.78
2019-02-06T09:39:11.081Z,58.52
2019-02-06T09:40:03.073Z,68.46
2019-02-06T09:41:03.075Z,59.83
2019-02-06T09:42:03.107Z,73.8
2019-02-06T09:43:02.899Z,59.57
2019-02-06T09:44:03.655Z,65.44
2019-02-06T09:45:03.833Z,68.08
2019-02-06T09:46:02.758Z,61.52
2019-02-06T09:47:03.521Z,71.22
2019-02-06T09:48:03.175Z,69.85
2019-02-06T09:49:03.264Z,62.46
2019-02-06T09:50:03.605Z,60.68
2019-02-06T09:51:02.880Z,71.62
2019-02-06T09:52:03.415Z,63.7
2019-02-06T09:53:02.831Z,65.94
2019-02-06T09:54:03.386Z,72.34
2019-02-06T09:55:03.271Z,73.6
2019-02-06T09:56:03.211Z,73.38
2019-02-06T09:57:03.595Z,68.65
2019-02-06T09:58:03.277Z,69.95
2019-02-06T09:59:03.679Z,59.81
2019-02-06T10:00:03.323Z,71.23
2019-02-06T10:01:02.762Z,65.68
2019-02-06T10:02:02.736Z,71.62
2019-02-06T10:03:02.983Z,76.36
2019-02-06T10:04:03.051Z,75.74
2019-02-06T10:05:03.483Z,66.85
2019-02-06T10:06:03.356Z,66.85
2019-02-06T10:07:03.205Z,69.69
2019-02-06T10:08:03.263Z,71.32
2019-02-06T10:09:02.874Z,71.32
2019-02-06T10:10:02.911Z,64.49
2019-02-06T10:11:03.319Z,59.81
2019-02-06T10:12:03.353Z,64.99
2019-02-06T10:13:02.970Z,70.88
2019-02-06T10:14:02.876Z,70.88
2019-02-06T10:15:03.460Z,66.46
2019-02-06T10:16:03.154Z,61.65
2019-02-06T10:17:02.749Z,60.25
2019-02-06T10:18:03.507Z,62.71
2019-02-06T10:19:03.611Z,59.12
2019-02-06T10:20:02.805Z,58.52
2019-02-06T10:21:02.846Z,62.94
2019-02-06T10:22:02.791Z,54.15
2019-02-06T10:23:03.011Z,63.99
2019-02-06T10:24:03.715Z,66.04
2019-02-06T10:25:03.180Z,58.93
2019-02-06T10:26:03.260Z,58.91
2019-02-06T10:27:02.958Z,69.26
2019-02-06T10:28:03.119Z,53.39
2019-02-06T10:29:02.703Z,66.76
2019-02-06T10:30:04.049Z,56.57
2019-02-06T10:31:03.582Z,55.34
2019-02-06T10:32:03.525Z,58.51
2019-02-06T10:33:02.980Z,69.21
2019-02-06T10:34:03.577Z,49.17
2019-02-06T10:35:03.146Z,61.82
2019-02-06T10:36:03.458Z,54.42
2019-02-06T10:37:03.503Z,57.91
2019-02-06T10:38:02.833Z,53.59
2019-02-06T10:39:03.516Z,59.31
2019-02-06T10:40:03.790Z,62.26
2019-02-06T10:41:04.629Z,62.79
2019-02-06T10:42:03.281Z,57.34
2019-02-06T10:43:03.449Z,53.85
2019-02-06T10:44:03.183Z,55.21
2019-02-06T10:45:03.547Z,59.5
2019-02-06T10:46:03.014Z,54.88
2019-02-06T10:47:03.189Z,52.66
2019-02-06T10:48:03.336Z,54.56
2019-02-06T10:49:03.547Z,56.55
2019-02-06T10:50:03.200Z,52.02
2019-02-06T10:51:03.584Z,52.8
2019-02-06T10:52:02.833Z,56.88
2019-02-06T10:53:03.451Z,60.37
2019-02-06T10:54:02.944Z,60.37
2019-02-06T10:55:03.239Z,50.36
2019-02-06T10:56:03.554Z,53.63
2019-02-06T10:57:03.192Z,52.14
2019-02-06T10:58:02.938Z,52.14
2019-02-06T10:59:03.444Z,57.12
2019-02-06T11:00:03.209Z,57.77
2019-02-06T11:01:02.738Z,51.58
2019-02-06T11:02:02.733Z,52.99
2019-02-06T11:03:02.772Z,53.09
2019-02-06T11:04:02.745Z,48.44
2019-02-06T11:05:02.855Z,53.05
2019-02-06T11:06:03.394Z,49.58
2019-02-06T11:07:03.095Z,52.72
2019-02-06T11:08:03.169Z,49.82
2019-02-06T11:09:03.032Z,47.76
2019-02-06T11:10:02.859Z,41.93
2019-02-06T11:11:03.710Z,48.79
2019-02-06T11:12:02.793Z,48.78
2019-02-06T11:13:03.407Z,56.74
2019-02-06T11:14:03.228Z,50.86
2019-02-06T11:15:03.217Z,48.97
2019-02-06T11:16:03.423Z,42.5
2019-02-06T11:17:03.613Z,45.34
2019-02-06T11:18:02.941Z,49.95
2019-02-06T11:19:03.091Z,52.88
2019-02-06T11:20:03.068Z,50.42
2019-02-06T11:21:02.932Z,50.42
2019-02-06T11:22:03.388Z,47.78
2019-02-06T11:23:02.792Z,43.37
2019-02-06T11:24:03.157Z,50.78
2019-02-06T11:25:04.673Z,43.05
2019-02-06T11:26:02.712Z,44.48
2019-02-06T11:27:03.335Z,46.28
2019-02-06T11:28:03.438Z,46.62
2019-02-06T11:29:02.900Z,52.42
2019-02-06T11:30:03.365Z,50.03
2019-02-06T11:31:03.289Z,45.51
2019-02-06T11:32:03.029Z,40.88
2019-02-06T11:33:03.496Z,43.09
2019-02-06T11:34:02.719Z,54.21
2019-02-06T11:35:03.607Z,52.88
2019-02-06T11:36:03.226Z,47.46
2019-02-06T11:37:02.829Z,43.36
2019-02-06T11:38:03.064Z,46.27
2019-02-06T11:39:03.010Z,49.59
2019-02-06T11:40:03.411Z,47.31
2019-02-06T11:41:03.149Z,47.85
2019-02-06T11:42:03.061Z,42.95
2019-02-06T11:43:02.810Z,47.64
2019-02-06T11:44:02.639Z,49.16
2019-02-06T11:45:02.932Z,51.58
2019-02-06T11:46:03.535Z,51.58
2019-02-06T11:47:02.950Z,56.69
2019-02-06T11:48:03.258Z,47.81
2019-02-06T11:49:03.281Z,47.81
2019-02-06T11:50:02.740Z,46.38
2019-02-06T11:51:02.831Z,51.23
2019-02-06T11:52:02.670Z,51.23
2019-02-06T11:53:03.460Z,50.12
2019-02-06T11:54:03.344Z,49.2
2019-02-06T11:55:03.189Z,45.13
2019-02-06T11:56:03.400Z,54.21
2019-02-06T11:57:02.880Z,48.85
2019-02-06T11:58:03.105Z,48.52
2019-02-06T11:59:02.982Z,51.85
2019-02-06T12:00:03.352Z,51.11
2019-02-06T12:01:03.641Z,46.08
2019-02-06T12:02:03.021Z,42.78
2019-02-06T12:03:03.267Z,50.81
2019-02-06T12:04:03.656Z,52.44
2019-02-06T12:05:02.932Z,53.71
2019-02-06T12:06:02.917Z,52.22
2019-02-06T12:07:03.328Z,48.83
2019-02-06T12:08:03.516Z,49.7
2019-02-06T12:09:03.244Z,49.35
2019-02-06T12:10:09.556Z,49.15
2019-02-06T12:11:02.794Z,48.71
2019-02-06T12:12:03.489Z,42.82
2019-02-06T12:13:03.419Z,52.11
2019-02-06T12:14:02.741Z,47.28
2019-02-06T12:15:02.999Z,53.52
2019-02-06T12:16:03.644Z,52.35
2019-02-06T12:17:03.652Z,58.08
2019-02-06T12:18:02.774Z,47.76
2019-02-06T12:19:03.047Z,49.43
2019-02-06T12:20:03.304Z,53.21
2019-02-06T12:21:03.473Z,46.56
2019-02-06T12:22:02.927Z,46.56
2019-02-06T12:23:03.002Z,46.88
2019-02-06T12:24:02.728Z,52.14
2019-02-06T12:25:03.648Z,52.14
2019-02-06T12:26:03.284Z,50.51
2019-02-06T12:27:02.874Z,49.53
2019-02-06T12:28:05.115Z,52.56
2019-02-06T12:29:02.863Z,53.51
2019-02-06T12:30:03.062Z,49.34
2019-02-06T12:31:03.548Z,54.42
2019-02-06T12:32:03.068Z,58.36
2019-02-06T12:33:02.765Z,59.14
2019-02-06T12:34:03.217Z,56.58
2019-02-06T12:35:03.012Z,56.58
2019-02-06T12:36:03.288Z,50.14
2019-02-06T12:37:02.879Z,50.14
2019-02-06T12:38:02.872Z,55.15
2019-02-06T12:39:03.116Z,57.09
2019-02-06T12:40:02.974Z,61.26
2019-02-06T12:41:03.063Z,55.96
2019-02-06T12:42:02.692Z,57.86
2019-02-06T12:43:03.252Z,49.46
2019-02-06T12:44:03.106Z,52.79
2019-02-06T12:45:02.635Z,57.81